Time;durP1;ratioP1;P1;durP2;ratioP2;P2;SDS_P1;SDS_P2;PMS_P1;PMS_P2;Temp;Humidity;BMP_temperature;BMP_pressure;BME280_temperature;BME280_humidity;BME280_pressure;Samples;Min_cycle;Max_cycle;Signal;HPM_P1;HPM_P2
2021/12/31 00:00:28;;;;;;;10.45;1.52;;;12.90;99.90;;;;;;6212409;23;20017;-86
2021/12/31 00:02:54;;;;;;;7.00;1.42;;;12.90;99.90;;;;;;6162223;23;20013;-86
2021/12/31 00:05:19;;;;;;;7.20;1.80;;;12.80;99.90;;;;;;6187190;23;20431;-87
2021/12/31 00:07:45;;;;;;;6.00;1.50;;;12.90;99.90;;;;;;6187137;23;20060;-87
2021/12/31 00:10:26;;;;;;;8.23;1.95;;;12.90;99.90;;;;;;6184639;23;20004;-86
2021/12/31 00:12:52;;;;;;;10.50;2.15;;;12.90;99.90;;;;;;6160828;23;20017;-87
2021/12/31 00:15:18;;;;;;;10.68;1.85;;;12.90;99.90;;;;;;6156717;23;20020;-86
2021/12/31 00:17:49;;;;;;;8.27;1.65;;;12.90;99.90;;;;;;6161249;23;20518;-86
2021/12/31 00:20:18;;;;;;;6.43;1.95;;;12.90;99.90;;;;;;6185345;23;20012;-86
2021/12/31 00:25:16;;;;;;;12.57;2.55;;;12.90;99.90;;;;;;6186379;23;20028;-86
2021/12/31 00:27:42;;;;;;;8.77;2.17;;;12.90;99.90;;;;;;6187319;23;20012;-87
2021/12/31 00:30:09;;;;;;;6.45;1.83;;;12.90;99.90;;;;;;6188190;23;20346;-86
2021/12/31 00:32:35;;;;;;;7.57;1.55;;;12.90;99.90;;;;;;6187725;23;20089;-86
2021/12/31 00:35:01;;;;;;;12.43;1.70;;;12.90;99.90;;;;;;6162676;23;20443;-87
2021/12/31 00:37:32;;;;;;;4.47;1.83;;;12.90;99.90;;;;;;6185731;23;20116;-86
2021/12/31 00:39:58;;;;;;;9.48;1.90;;;13.00;99.90;;;;;;6185148;23;20008;-86
2021/12/31 00:42:24;;;;;;;7.47;1.80;;;13.00;99.90;;;;;;6163035;23;20454;-86
2021/12/31 00:44:50;;;;;;;11.55;1.88;;;13.10;99.90;;;;;;6160341;23;20016;-86
2021/12/31 00:47:15;;;;;;;7.68;2.58;;;13.10;99.90;;;;;;6161290;23;20427;-86
2021/12/31 00:49:41;;;;;;;14.43;5.45;;;13.10;99.90;;;;;;6186525;23;20023;-86
2021/12/31 00:52:07;;;;;;;9.68;3.10;;;13.10;99.90;;;;;;6186796;23;20067;-87
2021/12/31 00:54:33;;;;;;;10.93;1.92;;;13.10;99.90;;;;;;6186009;23;20048;-86
2021/12/31 00:57:03;;;;;;;8.27;1.90;;;13.20;99.90;;;;;;6186615;23;20016;-86
2021/12/31 00:59:30;;;;;;;9.35;1.88;;;13.20;99.90;;;;;;6185826;23;20017;-86
2021/12/31 01:01:56;;;;;;;6.22;1.70;;;13.20;99.90;;;;;;6186146;23;20338;-86
2021/12/31 01:04:22;;;;;;;8.02;1.60;;;13.30;99.90;;;;;;6161221;23;20087;-87
2021/12/31 01:06:48;;;;;;;10.45;1.63;;;13.20;99.90;;;;;;6160624;23;20024;-87
2021/12/31 01:09:14;;;;;;;7.38;1.50;;;13.20;99.90;;;;;;6186393;23;20019;-86
2021/12/31 01:11:42;;;;;;;7.97;1.40;;;13.10;99.90;;;;;;6161387;23;20071;-86
2021/12/31 01:14:19;;;;;;;6.85;1.60;;;13.10;99.90;;;;;;6161470;23;20782;-86
2021/12/31 01:16:49;;;;;;;10.60;2.00;;;13.10;99.90;;;;;;6161943;23;20036;-87
2021/12/31 01:21:44;;;;;;;11.55;1.80;;;13.10;99.90;;;;;;6187369;23;20090;-87
2021/12/31 01:24:11;;;;;;;7.53;1.65;;;13.10;99.90;;;;;;6186142;23;20017;-86
2021/12/31 01:26:37;;;;;;;5.95;1.33;;;13.10;99.90;;;;;;6186235;23;20386;-86
2021/12/31 01:29:03;;;;;;;8.60;1.92;;;13.10;99.90;;;;;;6161470;23;20067;-86
2021/12/31 01:31:28;;;;;;;7.78;1.67;;;13.20;99.90;;;;;;6185501;23;20351;-86
2021/12/31 01:33:54;;;;;;;7.35;2.03;;;13.30;99.90;;;;;;6186231;23;20008;-86
2021/12/31 01:36:20;;;;;;;6.25;1.45;;;13.20;99.90;;;;;;6186683;23;20099;-86
2021/12/31 01:38:45;;;;;;;8.38;1.55;;;13.30;99.90;;;;;;6186870;23;20013;-86
2021/12/31 01:41:12;;;;;;;5.30;1.60;;;13.30;99.90;;;;;;6160960;23;20013;-87
2021/12/31 01:43:39;;;;;;;8.18;2.05;;;13.20;99.90;;;;;;6184914;23;20497;-86
2021/12/31 01:46:11;;;;;;;7.32;1.73;;;13.20;99.90;;;;;;6186356;23;20013;-86
2021/12/31 01:51:22;;;;;;;10.77;2.15;;;13.20;99.90;;;;;;6185706;23;20107;-86
2021/12/31 01:53:48;;;;;;;6.10;1.77;;;13.10;99.90;;;;;;6185349;23;20509;-86
2021/12/31 01:56:15;;;;;;;6.70;2.13;;;13.10;99.90;;;;;;6186177;23;20052;-86
2021/12/31 01:58:42;;;;;;;7.57;2.33;;;13.10;99.90;;;;;;6186505;23;20016;-86
2021/12/31 02:01:11;;;;;;;5.13;1.80;;;13.10;99.90;;;;;;6186935;23;20052;-86
2021/12/31 02:03:38;;;;;;;5.25;2.00;;;13.10;99.90;;;;;;6185860;23;20315;-87
2021/12/31 02:06:04;;;;;;;7.57;2.10;;;13.10;99.90;;;;;;6185539;23;20068;-87
2021/12/31 02:08:31;;;;;;;7.22;2.40;;;13.10;99.90;;;;;;6185644;23;20087;-87
2021/12/31 02:10:57;;;;;;;8.77;2.63;;;13.10;99.90;;;;;;6160398;23;20024;-86
2021/12/31 02:13:24;;;;;;;6.85;2.38;;;13.00;99.90;;;;;;6185853;23;20013;-86
2021/12/31 02:15:51;;;;;;;8.40;2.75;;;13.00;99.90;;;;;;6186276;23;20075;-86
2021/12/31 02:18:18;;;;;;;5.30;2.65;;;13.10;99.90;;;;;;6186809;23;20019;-87
2021/12/31 02:20:46;;;;;;;7.15;2.38;;;13.10;99.90;;;;;;6162267;23;20047;-87
2021/12/31 02:23:23;;;;;;;6.05;2.80;;;13.10;99.90;;;;;;6185722;23;20016;-86
2021/12/31 02:25:49;;;;;;;7.13;2.67;;;13.10;99.90;;;;;;6160643;23;20026;-87
2021/12/31 02:28:16;;;;;;;7.43;2.83;;;13.10;99.90;;;;;;6162473;23;20700;-87
2021/12/31 02:30:42;;;;;;;11.68;3.00;;;13.10;99.90;;;;;;6186898;23;20039;-86
2021/12/31 02:33:08;;;;;;;5.70;2.40;;;13.10;99.90;;;;;;6186532;23;21022;-87
2021/12/31 02:35:35;;;;;;;8.43;2.90;;;13.10;99.90;;;;;;6185242;23;20009;-87
2021/12/31 02:38:03;;;;;;;6.88;3.20;;;13.10;99.90;;;;;;6185806;23;20040;-87
2021/12/31 02:40:29;;;;;;;11.73;3.72;;;13.10;99.90;;;;;;6184954;23;20017;-86
2021/12/31 02:42:56;;;;;;;8.43;3.35;;;13.10;99.90;;;;;;6160852;23;20009;-86
2021/12/31 02:45:29;;;;;;;8.30;3.13;;;13.20;99.90;;;;;;6185078;23;20013;-87
2021/12/31 02:47:55;;;;;;;8.85;4.38;;;13.20;99.90;;;;;;6161169;23;20095;-86
2021/12/31 02:50:30;;;;;;;10.68;4.00;;;13.20;99.90;;;;;;6160559;23;20021;-86
2021/12/31 02:52:57;;;;;;;6.60;3.50;;;13.20;99.90;;;;;;6185934;23;20017;-87
2021/12/31 02:55:26;;;;;;;8.35;3.60;;;13.30;99.90;;;;;;6158904;23;20066;-86
2021/12/31 02:57:52;;;;;;;6.80;3.47;;;13.30;99.90;;;;;;6161411;23;20095;-86
2021/12/31 03:00:18;;;;;;;8.32;3.47;;;13.30;99.90;;;;;;6185639;23;20431;-87
2021/12/31 03:02:45;;;;;;;6.70;3.65;;;13.30;99.90;;;;;;6186345;23;20447;-86
2021/12/31 03:05:12;;;;;;;7.90;3.40;;;13.30;99.90;;;;;;6184850;23;20023;-87
2021/12/31 03:07:39;;;;;;;6.18;3.20;;;13.30;99.90;;;;;;6185532;23;20091;-87
2021/12/31 03:10:06;;;;;;;6.95;3.58;;;13.20;99.90;;;;;;6159926;23;20078;-87
2021/12/31 03:12:32;;;;;;;8.25;3.40;;;13.30;99.90;;;;;;6159043;23;20083;-86
2021/12/31 03:14:58;;;;;;;7.82;3.42;;;13.30;99.90;;;;;;6160830;23;20343;-86
2021/12/31 03:17:24;;;;;;;5.03;3.33;;;13.30;99.90;;;;;;6162175;23;20316;-87
2021/12/31 03:19:57;;;;;;;9.23;3.78;;;13.30;99.90;;;;;;6186922;23;20008;-87
2021/12/31 03:22:26;;;;;;;5.25;3.40;;;13.30;99.90;;;;;;6187350;23;20063;-86
2021/12/31 03:24:51;;;;;;;8.98;3.65;;;13.30;99.90;;;;;;6160006;23;20020;-87
2021/12/31 03:27:17;;;;;;;7.88;4.20;;;13.20;99.90;;;;;;6188113;23;20339;-87
2021/12/31 03:29:44;;;;;;;8.45;3.90;;;13.30;99.90;;;;;;6187074;23;20031;-86
2021/12/31 03:32:09;;;;;;;7.70;3.63;;;13.20;99.90;;;;;;6187271;23;20442;-86
2021/12/31 03:34:35;;;;;;;8.13;3.85;;;13.20;99.90;;;;;;6162734;23;20017;-87
2021/12/31 03:37:01;;;;;;;5.32;3.75;;;13.20;99.90;;;;;;6161660;23;20441;-87
2021/12/31 03:39:26;;;;;;;5.88;3.95;;;13.20;99.90;;;;;;6186757;23;20013;-86
2021/12/31 03:41:52;;;;;;;11.10;3.63;;;13.30;99.90;;;;;;6161861;23;20048;-87
2021/12/31 03:44:17;;;;;;;8.10;4.07;;;13.20;99.90;;;;;;6188208;23;20013;-87
2021/12/31 03:46:43;;;;;;;8.93;4.05;;;13.20;99.90;;;;;;6162849;23;20016;-86
2021/12/31 03:49:09;;;;;;;7.85;4.25;;;13.20;99.90;;;;;;6186841;23;20042;-86
2021/12/31 03:51:34;;;;;;;9.70;3.92;;;13.20;99.90;;;;;;6187655;23;20486;-87
2021/12/31 03:54:00;;;;;;;9.27;3.80;;;13.20;99.90;;;;;;6185908;23;20016;-87
2021/12/31 03:56:30;;;;;;;6.68;3.83;;;13.20;99.90;;;;;;6187655;23;20092;-86
2021/12/31 03:58:56;;;;;;;7.53;3.63;;;13.10;99.90;;;;;;6187783;23;20012;-87
2021/12/31 04:01:21;;;;;;;7.10;4.15;;;13.20;99.90;;;;;;6185910;23;20063;-86
2021/12/31 04:03:47;;;;;;;8.00;3.50;;;13.10;99.90;;;;;;6162351;23;20082;-87
2021/12/31 04:06:12;;;;;;;7.03;3.40;;;13.10;99.90;;;;;;6187503;23;20020;-87
2021/12/31 04:08:38;;;;;;;7.45;3.40;;;13.10;99.90;;;;;;6186928;23;20328;-86
2021/12/31 04:11:05;;;;;;;4.40;2.92;;;13.10;99.90;;;;;;6161600;23;20076;-86
2021/12/31 04:13:30;;;;;;;8.27;2.88;;;13.10;99.90;;;;;;6185923;23;20023;-87
2021/12/31 04:15:56;;;;;;;7.03;3.00;;;13.10;99.90;;;;;;6187017;23;20131;-86
2021/12/31 04:18:25;;;;;;;8.60;3.00;;;13.10;99.90;;;;;;6186140;23;20016;-87
2021/12/31 04:20:55;;;;;;;6.95;2.65;;;13.20;99.90;;;;;;6186419;23;20067;-86
2021/12/31 04:23:33;;;;;;;5.78;2.60;;;13.10;99.90;;;;;;6161834;23;20423;-86
2021/12/31 04:25:59;;;;;;;6.28;2.50;;;13.10;99.90;;;;;;6185455;23;20558;-86
2021/12/31 04:28:27;;;;;;;5.60;2.50;;;13.10;99.90;;;;;;6186491;23;20051;-86
2021/12/31 04:30:53;;;;;;;5.28;2.20;;;13.10;99.90;;;;;;6186920;23;20054;-87
2021/12/31 04:33:18;;;;;;;5.53;2.10;;;13.10;99.90;;;;;;6186401;23;20021;-86
2021/12/31 04:35:44;;;;;;;4.82;2.00;;;13.20;99.90;;;;;;6186339;23;20013;-86
2021/12/31 04:38:10;;;;;;;6.72;2.10;;;13.20;99.90;;;;;;6185534;23;20028;-86
2021/12/31 04:40:36;;;;;;;5.13;2.35;;;13.20;99.90;;;;;;6184969;23;20019;-86
2021/12/31 04:43:01;;;;;;;5.75;2.20;;;13.20;99.90;;;;;;6162307;23;20015;-87
2021/12/31 04:45:27;;;;;;;4.43;1.90;;;13.20;99.90;;;;;;6160292;23;20035;-86
2021/12/31 04:47:52;;;;;;;5.28;1.77;;;13.20;99.90;;;;;;6186770;23;20021;-86
2021/12/31 04:50:18;;;;;;;4.05;1.65;;;13.20;99.90;;;;;;6186604;23;20016;-87
2021/12/31 04:52:44;;;;;;;4.22;1.55;;;13.20;99.90;;;;;;6186489;23;20124;-86
2021/12/31 04:55:11;;;;;;;8.63;1.98;;;13.20;99.90;;;;;;6184613;23;20017;-87
2021/12/31 04:57:37;;;;;;;5.07;1.42;;;13.20;99.90;;;;;;6161792;23;20019;-87
2021/12/31 05:00:05;;;;;;;3.78;1.55;;;13.20;99.90;;;;;;6186920;23;20358;-87
2021/12/31 05:02:31;;;;;;;5.40;1.73;;;13.20;99.90;;;;;;6185807;23;20391;-86
2021/12/31 05:04:56;;;;;;;3.83;1.45;;;13.30;99.90;;;;;;6160932;23;20012;-86
2021/12/31 05:07:22;;;;;;;6.35;1.17;;;13.30;99.90;;;;;;6160558;23;20018;-86
2021/12/31 05:09:48;;;;;;;3.80;1.42;;;13.30;99.90;;;;;;6185505;23;20024;-86
2021/12/31 05:12:20;;;;;;;7.40;1.40;;;13.30;99.90;;;;;;6162758;23;20353;-86
2021/12/31 05:14:45;;;;;;;6.13;1.33;;;13.30;99.90;;;;;;6186888;23;20040;-87
2021/12/31 05:17:11;;;;;;;5.72;1.23;;;13.30;99.90;;;;;;6186200;23;20127;-86
2021/12/31 05:19:37;;;;;;;3.22;1.08;;;13.30;99.90;;;;;;6160998;23;20011;-87
2021/12/31 05:22:03;;;;;;;4.53;1.15;;;13.30;99.90;;;;;;6186866;23;20087;-86
2021/12/31 05:24:29;;;;;;;3.70;1.27;;;13.30;99.90;;;;;;6184380;23;20024;-87
2021/12/31 05:26:54;;;;;;;5.07;1.10;;;13.30;99.90;;;;;;6161461;23;20009;-86
2021/12/31 05:29:20;;;;;;;4.53;1.30;;;13.20;99.90;;;;;;6185881;23;20015;-86
2021/12/31 05:31:45;;;;;;;4.28;1.23;;;13.20;99.90;;;;;;6186545;23;20094;-86
2021/12/31 05:34:11;;;;;;;5.07;1.13;;;13.10;99.90;;;;;;6161773;23;20019;-87
2021/12/31 05:36:37;;;;;;;3.88;0.95;;;13.10;99.90;;;;;;6161890;23;20012;-86
2021/12/31 05:39:02;;;;;;;6.38;1.17;;;13.10;99.90;;;;;;6159515;23;20021;-87
2021/12/31 05:41:29;;;;;;;3.65;0.93;;;13.00;99.90;;;;;;6160839;23;20016;-87
2021/12/31 05:43:54;;;;;;;4.07;0.98;;;13.00;99.90;;;;;;6186013;23;20009;-87
2021/12/31 05:46:20;;;;;;;1.58;0.85;;;12.90;99.90;;;;;;6187096;23;20017;-86
2021/12/31 05:48:45;;;;;;;3.92;1.10;;;12.90;99.90;;;;;;6162163;23;20020;-87
2021/12/31 05:51:11;;;;;;;3.50;0.85;;;12.80;99.90;;;;;;6161986;23;20028;-86
2021/12/31 05:53:36;;;;;;;4.45;1.30;;;12.80;99.90;;;;;;6185399;23;20056;-86
2021/12/31 05:56:02;;;;;;;2.25;1.10;;;12.80;99.90;;;;;;6185965;23;20079;-86
2021/12/31 05:58:28;;;;;;;3.47;0.98;;;12.70;99.90;;;;;;6186537;23;20067;-86
2021/12/31 06:00:53;;;;;;;3.50;1.10;;;12.80;99.90;;;;;;6185779;23;20066;-86
2021/12/31 06:03:19;;;;;;;2.47;1.17;;;12.80;99.90;;;;;;6162093;23;20012;-86
2021/12/31 06:05:45;;;;;;;3.53;1.25;;;12.70;99.90;;;;;;6186279;23;20016;-86
2021/12/31 06:08:10;;;;;;;3.60;1.10;;;12.70;99.90;;;;;;6161298;23;20028;-87
2021/12/31 06:10:42;;;;;;;2.75;1.20;;;12.70;99.90;;;;;;6185041;23;20009;-87
2021/12/31 06:13:10;;;;;;;2.58;0.90;;;12.70;99.90;;;;;;6161944;23;20545;-87
2021/12/31 06:15:36;;;;;;;3.13;0.82;;;12.60;99.90;;;;;;6185304;23;20012;-86
2021/12/31 06:18:01;;;;;;;5.40;0.90;;;12.70;99.90;;;;;;6186960;23;20032;-86
2021/12/31 06:20:30;;;;;;;4.35;1.10;;;12.60;99.90;;;;;;6160226;23;20435;-86
2021/12/31 06:22:59;;;;;;;3.45;1.13;;;12.60;99.90;;;;;;6186156;23;20008;-87
2021/12/31 06:25:26;;;;;;;5.13;1.33;;;12.60;99.90;;;;;;6159182;23;20143;-87
2021/12/31 06:27:52;;;;;;;3.22;1.00;;;12.60;99.90;;;;;;6186349;23;20008;-87
2021/12/31 06:30:18;;;;;;;4.70;1.50;;;12.60;99.90;;;;;;6161397;23;20337;-87
2021/12/31 06:32:43;;;;;;;3.08;1.20;;;12.60;99.90;;;;;;6187357;23;20017;-87
2021/12/31 06:35:09;;;;;;;5.22;1.52;;;12.70;99.90;;;;;;6186472;23;20052;-86
2021/12/31 06:37:36;;;;;;;3.05;1.00;;;12.70;99.90;;;;;;6186404;23;20454;-87
2021/12/31 06:40:05;;;;;;;2.53;0.90;;;12.60;99.90;;;;;;6159177;23;20034;-87
2021/12/31 06:42:31;;;;;;;5.07;1.20;;;12.60;99.90;;;;;;6185043;23;20015;-87
2021/12/31 06:44:56;;;;;;;3.22;1.23;;;12.60;99.90;;;;;;6186145;23;20099;-86
2021/12/31 06:47:22;;;;;;;3.88;1.05;;;12.60;99.90;;;;;;6185443;23;20044;-87
2021/12/31 06:49:47;;;;;;;6.25;1.17;;;12.60;99.90;;;;;;6186670;23;20016;-87
2021/12/31 06:52:13;;;;;;;5.03;1.20;;;12.60;99.90;;;;;;6163415;23;20016;-86
2021/12/31 06:54:39;;;;;;;3.03;1.00;;;12.60;99.90;;;;;;6186885;23;20013;-87
2021/12/31 06:57:04;;;;;;;3.83;1.60;;;12.60;99.90;;;;;;6188052;23;20012;-86
2021/12/31 06:59:30;;;;;;;5.05;1.10;;;12.60;99.90;;;;;;6162595;23;20067;-87
2021/12/31 07:01:57;;;;;;;4.55;0.85;;;12.60;99.90;;;;;;6187303;23;20323;-87
2021/12/31 07:04:23;;;;;;;3.15;1.20;;;12.50;99.90;;;;;;6187913;23;20019;-87
2021/12/31 07:06:49;;;;;;;5.72;1.20;;;12.60;99.90;;;;;;6162728;23;20020;-87
2021/12/31 07:09:15;;;;;;;3.25;1.00;;;12.60;99.90;;;;;;6161709;23;20009;-86
2021/12/31 07:11:40;;;;;;;3.88;1.23;;;12.60;99.90;;;;;;6187005;23;20114;-87
2021/12/31 07:14:06;;;;;;;4.57;1.10;;;12.60;99.90;;;;;;6188331;23;19997;-87
2021/12/31 07:16:32;;;;;;;3.03;1.17;;;12.50;99.90;;;;;;6187450;23;20019;-87
2021/12/31 07:18:58;;;;;;;4.35;1.13;;;12.50;99.90;;;;;;6186700;23;20108;-87
2021/12/31 07:21:23;;;;;;;3.30;1.35;;;12.50;99.90;;;;;;6187097;23;20017;-87
2021/12/31 07:23:49;;;;;;;7.68;1.20;;;12.50;99.90;;;;;;6161385;23;20043;-86
2021/12/31 07:26:15;;;;;;;3.58;1.13;;;12.50;99.90;;;;;;6186964;23;20087;-87
2021/12/31 07:28:40;;;;;;;3.20;1.00;;;12.60;99.90;;;;;;6163534;23;20012;-87
2021/12/31 07:31:06;;;;;;;4.43;1.13;;;12.60;99.90;;;;;;6162059;23;20070;-87
2021/12/31 07:33:32;;;;;;;4.15;1.17;;;12.60;99.90;;;;;;6187925;23;20363;-87
2021/12/31 07:36:00;;;;;;;4.40;1.30;;;12.60;99.90;;;;;;6162531;23;20016;-87
2021/12/31 07:38:33;;;;;;;1.92;1.00;;;12.50;99.90;;;;;;6188364;23;20008;-87
2021/12/31 07:40:59;;;;;;;5.05;1.20;;;12.50;99.90;;;;;;6185916;23;20015;-87
2021/12/31 07:43:25;;;;;;;4.95;1.30;;;12.40;99.90;;;;;;6161818;23;20040;-87
2021/12/31 07:45:52;;;;;;;3.22;1.20;;;12.40;99.90;;;;;;6162266;23;20031;-86
2021/12/31 07:48:18;;;;;;;2.80;1.42;;;12.40;99.90;;;;;;6187709;23;20016;-88
2021/12/31 07:50:44;;;;;;;3.85;1.05;;;12.50;99.90;;;;;;6161793;23;20016;-87
2021/12/31 07:53:10;;;;;;;3.20;2.03;;;12.50;99.90;;;;;;6187792;23;20043;-87
2021/12/31 07:55:35;;;;;;;4.38;1.02;;;12.50;99.90;;;;;;6185102;23;20155;-86
2021/12/31 07:58:02;;;;;;;4.35;1.10;;;12.60;99.90;;;;;;6186514;23;20015;-86
2021/12/31 08:00:27;;;;;;;4.13;0.95;;;12.60;99.90;;;;;;6186255;23;20027;-87
2021/12/31 08:02:55;;;;;;;3.55;1.20;;;12.50;99.90;;;;;;6187167;23;20009;-86
2021/12/31 08:05:21;;;;;;;3.80;1.10;;;12.50;99.90;;;;;;6162796;23;20063;-86
2021/12/31 08:07:47;;;;;;;3.70;1.35;;;12.60;99.90;;;;;;6188441;23;20017;-87
2021/12/31 08:22:01;;;;;;;;;;;;;;;;;;;;;
2021/12/31 08:28:26;;;;;;;3.22;1.33;;;12.70;99.90;;;;;;6095257;23;20460;-86
2021/12/31 08:31:10;;;;;;;3.60;1.13;;;12.70;99.90;;;;;;6088446;23;20060;-87
2021/12/31 08:33:35;;;;;;;3.83;1.30;;;12.70;99.90;;;;;;6072519;23;20081;-87
2021/12/31 08:36:07;;;;;;;4.05;1.27;;;12.70;99.90;;;;;;6095778;23;20605;-87
2021/12/31 08:38:33;;;;;;;3.97;1.10;;;12.80;99.90;;;;;;6115239;23;20013;-87
2021/12/31 08:41:01;;;;;;;4.45;1.35;;;12.80;99.90;;;;;;6100581;23;20013;-87
2021/12/31 08:43:27;;;;;;;2.85;1.10;;;12.80;99.90;;;;;;6125142;23;20045;-86
2021/12/31 08:45:52;;;;;;;3.95;0.93;;;12.70;99.90;;;;;;6124906;23;20565;-86
2021/12/31 08:48:18;;;;;;;2.90;1.20;;;12.70;99.90;;;;;;6150309;23;20093;-86
2021/12/31 08:50:44;;;;;;;3.45;1.10;;;12.70;99.90;;;;;;6100593;23;20068;-86
2021/12/31 08:53:10;;;;;;;5.05;1.30;;;12.60;99.90;;;;;;6155201;23;20430;-86
2021/12/31 08:55:35;;;;;;;3.80;1.10;;;12.70;99.90;;;;;;6182847;23;20390;-87
2021/12/31 08:58:01;;;;;;;3.60;1.08;;;12.60;99.90;;;;;;6160529;23;20008;-87
2021/12/31 09:00:27;;;;;;;2.75;1.13;;;12.60;99.90;;;;;;6184447;23;20346;-87
2021/12/31 09:02:52;;;;;;;3.28;1.17;;;12.60;99.90;;;;;;6157699;23;20005;-86
2021/12/31 09:05:18;;;;;;;4.22;1.15;;;12.70;99.90;;;;;;6183002;23;20020;-87
2021/12/31 09:07:44;;;;;;;3.88;1.40;;;12.70;99.90;;;;;;6183451;23;20028;-87
2021/12/31 09:10:10;;;;;;;3.47;1.50;;;12.70;99.90;;;;;;6183066;23;20024;-87
2021/12/31 09:12:37;;;;;;;3.05;1.05;;;12.60;99.90;;;;;;6185305;23;20104;-87
2021/12/31 09:15:04;;;;;;;4.43;1.45;;;12.60;99.90;;;;;;6184790;23;20509;-87
2021/12/31 09:17:30;;;;;;;3.97;1.10;;;12.60;99.90;;;;;;6184184;23;20071;-87
2021/12/31 09:19:56;;;;;;;3.80;1.23;;;12.50;99.90;;;;;;6160139;23;20017;-87
2021/12/31 09:22:21;;;;;;;2.92;1.20;;;12.60;99.90;;;;;;6160844;23;20507;-86
2021/12/31 09:24:48;;;;;;;4.95;1.40;;;12.60;99.90;;;;;;6184603;23;20023;-87
2021/12/31 09:27:14;;;;;;;3.13;1.30;;;12.60;99.90;;;;;;6161605;23;20450;-87
2021/12/31 09:29:40;;;;;;;3.72;1.83;;;12.60;99.90;;;;;;6186482;23;20019;-87
2021/12/31 09:32:06;;;;;;;5.30;1.40;;;12.60;99.90;;;;;;6185392;23;20020;-87
2021/12/31 09:34:32;;;;;;;4.70;1.63;;;12.60;99.90;;;;;;6161077;23;20008;-87
2021/12/31 09:36:57;;;;;;;4.32;1.20;;;12.60;99.90;;;;;;6185430;23;20012;-87
2021/12/31 09:39:23;;;;;;;3.35;1.35;;;12.70;99.90;;;;;;6184503;23;20044;-87
2021/12/31 09:41:48;;;;;;;4.50;1.40;;;12.70;99.90;;;;;;6185460;23;20016;-87
2021/12/31 09:44:15;;;;;;;4.57;1.60;;;12.70;99.90;;;;;;6186116;23;20032;-87
2021/12/31 09:46:42;;;;;;;4.18;1.77;;;12.70;99.90;;;;;;6183800;23;20012;-86
2021/12/31 09:49:08;;;;;;;4.18;1.58;;;12.70;99.90;;;;;;6185706;23;20139;-86
2021/12/31 09:51:35;;;;;;;3.22;1.38;;;12.70;99.90;;;;;;6161312;23;20179;-86
2021/12/31 09:59:40;;;;;;;4.40;1.52;;;12.70;99.90;;;;;;6208646;23;20086;-86
2021/12/31 10:19:04;;;;;;;4.80;1.73;;;12.70;99.90;;;;;;6181595;23;20016;-86
2021/12/31 10:21:44;;;;;;;4.07;2.13;;;12.70;99.90;;;;;;6154046;23;20092;-88
2021/12/31 10:24:36;;;;;;;5.43;1.65;;;12.60;99.90;;;;;;6153702;23;20076;-85
2021/12/31 10:27:20;;;;;;;4.32;1.70;;;12.60;99.90;;;;;;6155000;23;20307;-87
2021/12/31 10:29:52;;;;;;;4.00;1.92;;;12.60;99.90;;;;;;6151715;23;20104;-87
2021/12/31 10:32:19;;;;;;;5.97;1.92;;;12.60;99.90;;;;;;6154602;23;20009;-87
2021/12/31 10:34:44;;;;;;;3.30;1.60;;;12.60;99.90;;;;;;6129680;23;20040;-87
2021/12/31 10:37:19;;;;;;;5.32;1.92;;;12.60;99.90;;;;;;6152757;23;20041;-87
2021/12/31 10:39:53;;;;;;;4.40;1.90;;;12.60;99.90;;;;;;6150715;23;20447;-87
2021/12/31 10:42:19;;;;;;;5.55;2.22;;;12.60;99.90;;;;;;6181554;23;20009;-86
2021/12/31 10:44:53;;;;;;;6.40;2.50;;;12.60;99.90;;;;;;6153672;23;20013;-86
2021/12/31 10:47:33;;;;;;;4.85;1.90;;;12.60;99.90;;;;;;6153849;23;20024;-86
2021/12/31 10:50:11;;;;;;;4.00;2.03;;;12.60;99.90;;;;;;6153944;23;20024;-86
2021/12/31 10:52:46;;;;;;;6.30;2.40;;;12.60;99.90;;;;;;6154308;23;20021;-86
2021/12/31 10:55:17;;;;;;;3.33;1.85;;;12.60;99.90;;;;;;6152231;23;20332;-86
2021/12/31 10:57:45;;;;;;;4.30;2.40;;;12.50;99.90;;;;;;6131130;23;20059;-87
2021/12/31 11:00:13;;;;;;;4.45;2.22;;;12.60;99.90;;;;;;6128754;23;20044;-87
2021/12/31 11:02:39;;;;;;;5.93;2.20;;;12.60;99.90;;;;;;6158226;23;20520;-86
2021/12/31 11:05:06;;;;;;;5.18;2.40;;;12.60;99.90;;;;;;6183048;23;20016;-86
2021/12/31 11:07:32;;;;;;;5.18;1.88;;;12.60;99.90;;;;;;6184455;23;20016;-86
2021/12/31 11:10:00;;;;;;;5.68;2.25;;;12.60;99.90;;;;;;6182770;23;20397;-86
2021/12/31 11:12:27;;;;;;;5.85;2.30;;;12.60;99.90;;;;;;6184159;23;20354;-86
2021/12/31 11:14:53;;;;;;;8.52;2.25;;;12.60;99.90;;;;;;6182262;23;20009;-86
2021/12/31 11:17:19;;;;;;;5.13;2.30;;;12.60;99.90;;;;;;6159730;23;20491;-86
2021/12/31 11:19:47;;;;;;;5.43;2.38;;;12.60;99.90;;;;;;6157172;23;20015;-86
2021/12/31 11:22:14;;;;;;;5.00;2.03;;;12.60;99.90;;;;;;6184686;23;20009;-86
2021/12/31 11:24:40;;;;;;;5.30;2.33;;;12.60;99.90;;;;;;6182014;23;20039;-88
2021/12/31 11:27:31;;;;;;;4.28;2.00;;;12.60;99.90;;;;;;6158205;23;20016;-87
2021/12/31 11:30:00;;;;;;;6.53;2.53;;;12.60;99.90;;;;;;6183152;23;20013;-88
2021/12/31 11:32:45;;;;;;;5.53;2.20;;;12.60;99.90;;;;;;6206553;23;20044;-87
2021/12/31 11:35:58;;;;;;;6.78;2.28;;;12.60;99.90;;;;;;6182663;23;20021;-87
2021/12/31 11:38:26;;;;;;;4.82;2.72;;;12.70;99.90;;;;;;6160348;23;20013;-86
2021/12/31 11:41:07;;;;;;;7.28;3.88;;;12.70;99.90;;;;;;6182735;23;20425;-86
2021/12/31 11:43:35;;;;;;;5.70;2.55;;;12.70;99.90;;;;;;6185068;23;20012;-87
2021/12/31 11:46:10;;;;;;;5.80;2.80;;;12.70;99.90;;;;;;6183739;23;20066;-87
2021/12/31 11:48:45;;;;;;;5.85;2.42;;;12.70;99.90;;;;;;6184951;23;20024;-87
2021/12/31 11:51:11;;;;;;;5.25;2.45;;;12.80;99.90;;;;;;6184879;23;20027;-87
2021/12/31 11:54:06;;;;;;;8.88;2.92;;;12.70;99.90;;;;;;6185511;23;20040;-86
2021/12/31 11:56:47;;;;;;;5.55;2.50;;;12.70;99.90;;;;;;6126973;23;20017;-86
2021/12/31 11:59:16;;;;;;;4.45;2.28;;;12.70;99.90;;;;;;6159941;23;20056;-87
2021/12/31 12:01:52;;;;;;;6.60;2.70;;;12.80;99.90;;;;;;6159542;23;20370;-86
2021/12/31 12:04:24;;;;;;;8.20;3.20;;;12.70;99.90;;;;;;6159388;23;20024;-85
2021/12/31 12:07:12;;;;;;;8.40;2.88;;;12.80;99.90;;;;;;6159042;23;20027;-86
2021/12/31 12:09:38;;;;;;;4.55;2.75;;;12.80;99.90;;;;;;6158519;23;20126;-86
2021/12/31 12:12:08;;;;;;;6.35;3.03;;;12.70;99.90;;;;;;6184375;23;20031;-86
2021/12/31 12:14:40;;;;;;;6.43;2.63;;;12.70;99.90;;;;;;6159858;23;20020;-86
2021/12/31 12:17:07;;;;;;;10.85;3.20;;;12.70;99.90;;;;;;6158984;23;20024;-86
2021/12/31 12:19:50;;;;;;;5.68;2.72;;;12.70;99.90;;;;;;6181970;23;20058;-86
2021/12/31 12:22:34;;;;;;;9.10;3.15;;;12.60;99.90;;;;;;6186694;23;20013;-86
2021/12/31 12:25:04;;;;;;;8.13;3.05;;;12.60;99.90;;;;;;6183074;23;20074;-87
2021/12/31 12:27:30;;;;;;;8.65;3.53;;;12.50;99.90;;;;;;6184629;23;20023;-85
2021/12/31 12:29:59;;;;;;;7.90;2.67;;;12.40;99.90;;;;;;6183536;23;20447;-86
2021/12/31 12:35:27;;;;;;;8.88;3.00;;;12.20;99.90;;;;;;6184708;23;20459;-84
2021/12/31 12:38:06;;;;;;;8.27;3.15;;;12.10;99.90;;;;;;6209458;23;20000;-84
2021/12/31 12:40:46;;;;;;;8.35;3.10;;;12.10;99.90;;;;;;6157090;23;20373;-85
2021/12/31 12:43:26;;;;;;;9.38;3.85;;;12.00;99.90;;;;;;6185330;23;20016;-85
2021/12/31 12:45:57;;;;;;;7.85;3.08;;;12.00;99.90;;;;;;6158279;23;20020;-84
2021/12/31 12:48:35;;;;;;;10.60;3.08;;;11.90;99.90;;;;;;6183812;23;20023;-85
2021/12/31 12:51:09;;;;;;;9.45;3.50;;;11.90;99.90;;;;;;6158423;23;20107;-84
2021/12/31 12:53:40;;;;;;;9.02;3.90;;;11.90;99.90;;;;;;6184291;23;20091;-84
2021/12/31 12:56:08;;;;;;;7.35;3.75;;;11.90;99.90;;;;;;6183885;23;20023;-84
2021/12/31 12:58:36;;;;;;;6.75;3.30;;;11.90;99.90;;;;;;6183806;23;20078;-85
2021/12/31 13:01:06;;;;;;;7.90;3.45;;;11.80;99.90;;;;;;6184708;23;20016;-84
2021/12/31 13:03:44;;;;;;;10.73;4.22;;;11.80;99.90;;;;;;6184372;23;20032;-85
2021/12/31 13:06:09;;;;;;;7.72;3.10;;;11.80;99.90;;;;;;6156837;23;20079;-84
2021/12/31 13:08:35;;;;;;;11.13;4.07;;;11.80;99.90;;;;;;6182592;23;20016;-84
2021/12/31 13:11:02;;;;;;;8.98;3.60;;;11.80;99.90;;;;;;6182343;23;20054;-85
2021/12/31 13:13:31;;;;;;;8.43;3.60;;;11.70;99.90;;;;;;6182928;23;20064;-85
2021/12/31 13:15:57;;;;;;;13.05;3.72;;;11.70;99.90;;;;;;6182732;23;20465;-84
2021/12/31 13:18:25;;;;;;;10.15;3.90;;;11.70;99.90;;;;;;6183522;23;20012;-85
2021/12/31 13:21:01;;;;;;;9.13;3.40;;;11.70;99.90;;;;;;6159251;23;20013;-85
2021/12/31 13:23:27;;;;;;;9.48;2.92;;;11.70;99.90;;;;;;6184224;23;20011;-86
2021/12/31 13:25:53;;;;;;;10.27;3.40;;;11.70;99.90;;;;;;6184752;23;20075;-85
2021/12/31 13:28:21;;;;;;;8.73;3.15;;;11.70;99.90;;;;;;6184437;23;20351;-86
2021/12/31 13:31:08;;;;;;;7.57;3.20;;;11.70;99.90;;;;;;6208826;23;20502;-86
2021/12/31 13:33:40;;;;;;;8.13;3.30;;;11.80;99.90;;;;;;6184799;23;20017;-85
2021/12/31 13:36:25;;;;;;;9.32;2.95;;;11.80;99.90;;;;;;6183745;23;20022;-86
2021/12/31 13:39:13;;;;;;;7.30;2.58;;;11.80;99.90;;;;;;6184101;23;20023;-86
2021/12/31 13:41:53;;;;;;;9.77;3.15;;;11.90;99.90;;;;;;6159122;23;20009;-86